Time;durP1;ratioP1;P1;durP2;ratioP2;P2;SDS_P1;SDS_P2;PMS_P1;PMS_P2;Temp;Humidity;BMP_temperature;BMP_pressure;BME280_temperature;BME280_humidity;BME280_pressure;Samples;Min_cycle;Max_cycle;Signal;HPM_P1;HPM_P2
2021/09/28 00:01:49;;;;;;;2.83;1.17;;;;;;;15.83;59.73;102063.44;4966934;28;115155;-65
2021/09/28 00:04:17;;;;;;;5.75;1.10;;;;;;;15.81;59.91;102059.97;4951212;28;112915;-65
2021/09/28 00:06:44;;;;;;;5.38;1.40;;;;;;;15.77;59.89;102065.44;4969883;28;124417;-66
2021/09/28 00:09:11;;;;;;;5.32;1.50;;;;;;;15.76;59.99;102063.72;4970833;28;124545;-66
2021/09/28 00:11:38;;;;;;;3.78;1.23;;;;;;;15.74;59.87;102065.56;4971042;28;114585;-66
2021/09/28 00:14:05;;;;;;;4.40;1.38;;;;;;;15.72;59.98;102067.41;4954312;28;112792;-66
2021/09/28 00:16:33;;;;;;;5.45;1.40;;;;;;;15.70;60.04;102069.31;4969907;28;123995;-66
2021/09/28 00:19:00;;;;;;;6.28;1.35;;;;;;;15.69;59.91;102072.94;4970213;28;126773;-66
2021/09/28 00:21:27;;;;;;;6.47;1.20;;;;;;;15.67;60.20;102080.16;4970732;28;114210;-66
2021/09/28 00:23:54;;;;;;;5.88;1.63;;;;;;;15.66;59.96;102089.09;4957502;28;112980;-66
2021/09/28 00:26:22;;;;;;;4.35;1.40;;;;;;;15.62;59.98;102079.50;4967561;28;124398;-66
2021/09/28 00:28:49;;;;;;;3.55;1.35;;;;;;;15.60;59.75;102080.50;4968842;28;124427;-67
2021/09/28 00:31:16;;;;;;;5.47;1.38;;;;;;;15.57;60.02;102078.81;4968741;28;114231;-66
2021/09/28 00:33:43;;;;;;;5.95;1.50;;;;;;;15.54;60.02;102084.31;4955670;28;113822;-66
2021/09/28 00:36:10;;;;;;;4.55;1.20;;;;;;;15.51;60.18;102084.47;4970635;28;124200;-66
2021/09/28 00:38:37;;;;;;;4.00;1.40;;;;;;;15.49;60.18;102091.69;4967437;28;124072;-65
2021/09/28 00:41:05;;;;;;;4.50;1.38;;;;;;;15.48;60.20;102095.25;4970007;28;115404;-66
2021/09/28 00:43:51;;;;;;;7.18;1.60;;;;;;;15.45;60.28;102093.63;4969777;28;114997;-66
2021/09/28 00:46:19;;;;;;;5.05;1.42;;;;;;;15.44;60.25;102096.34;4969933;28;124933;-65
2021/09/28 00:48:46;;;;;;;3.25;1.30;;;;;;;15.42;60.24;102092.88;4970132;28;123751;-66
2021/09/28 00:51:15;;;;;;;4.22;1.45;;;;;;;15.40;60.34;102092.09;4969586;28;114845;-65
2021/09/28 00:53:43;;;;;;;3.60;1.45;;;;;;;15.37;60.43;102093.97;4969091;28;114029;-65
2021/09/28 00:56:20;;;;;;;3.17;1.20;;;;;;;15.35;60.40;102089.59;4972263;28;124052;-65
2021/09/28 00:58:48;;;;;;;6.32;1.48;;;;;;;15.34;60.38;102091.41;4969739;28;123734;-66
2021/09/28 01:01:16;;;;;;;5.28;1.33;;;;;;;15.31;60.22;102088.91;4973412;28;114220;-66
2021/09/28 01:03:43;;;;;;;6.10;1.70;;;;;;;15.29;60.39;102090.75;4968720;28;113745;-66
2021/09/28 01:06:11;;;;;;;3.10;1.42;;;;;;;15.29;60.56;102095.22;4970684;28;124084;-66
2021/09/28 01:08:38;;;;;;;6.53;1.42;;;;;;;15.28;60.50;102088.19;4970937;28;123944;-65
2021/09/28 01:11:05;;;;;;;5.43;1.65;;;;;;;15.26;60.40;102096.25;4966101;28;114322;-65
2021/09/28 01:13:32;;;;;;;6.47;1.50;;;;;;;15.25;60.57;102099.84;4972986;28;114948;-66
2021/09/28 01:15:59;;;;;;;4.22;1.45;;;;;;;15.25;60.41;102099.84;4970760;28;124725;-65
2021/09/28 01:18:29;;;;;;;6.75;1.73;;;;;;;15.23;60.62;102100.84;4968236;28;124123;-65
2021/09/28 01:21:00;;;;;;;6.43;1.60;;;;;;;15.23;60.63;102101.72;4971696;28;114169;-65
2021/09/28 01:23:27;;;;;;;3.30;1.35;;;;;;;15.21;60.53;102098.25;4960889;28;114551;-65
2021/09/28 01:25:54;;;;;;;6.35;1.48;;;;;;;15.20;60.52;102101.88;4972441;28;124244;-65
2021/09/28 01:28:22;;;;;;;4.32;1.85;;;;;;;15.19;60.69;102105.47;4966291;28;125240;-65
2021/09/28 01:30:50;;;;;;;5.28;1.55;;;;;;;15.17;60.54;102107.34;4968596;28;116040;-65
2021/09/28 01:33:18;;;;;;;8.10;1.73;;;;;;;15.15;60.68;102106.53;4964476;28;115170;-65
2021/09/28 01:35:45;;;;;;;5.00;2.10;;;;;;;15.13;60.60;102100.41;4952551;28;123808;-65
2021/09/28 01:38:12;;;;;;;9.60;1.83;;;;;;;15.13;60.70;102105.75;4956390;28;124505;-65
2021/09/28 01:40:39;;;;;;;6.70;1.55;;;;;;;15.12;60.82;102109.31;4961017;28;114904;-65
2021/09/28 01:43:12;;;;;;;5.97;1.40;;;;;;;15.11;60.66;102102.28;4966335;28;113768;-66
2021/09/28 01:45:39;;;;;;;4.88;1.50;;;;;;;15.11;60.68;102108.47;4967330;28;124759;-66
2021/09/28 01:48:07;;;;;;;3.88;1.35;;;;;;;15.12;60.74;102114.66;4948283;28;124021;-65
2021/09/28 01:50:35;;;;;;;8.10;1.63;;;;;;;15.10;60.74;102101.38;4953048;28;114571;-66
2021/09/28 01:53:03;;;;;;;4.53;1.65;;;;;;;15.08;60.74;102097.06;4957740;28;114836;-65
2021/09/28 01:55:31;;;;;;;4.30;1.33;;;;;;;15.07;60.78;102112.22;4953707;28;124513;-66
2021/09/28 01:57:59;;;;;;;5.57;1.27;;;;;;;15.06;60.68;102104.25;4959421;28;124652;-65
2021/09/28 02:00:27;;;;;;;6.75;1.60;;;;;;;15.05;60.72;102102.50;4953752;28;114259;-65
2021/09/28 02:02:54;;;;;;;5.57;1.35;;;;;;;15.04;60.70;102114.13;4954613;28;113985;-65
2021/09/28 02:05:22;;;;;;;10.68;1.73;;;;;;;15.02;60.82;102114.19;4958865;28;123246;-65
2021/09/28 02:07:49;;;;;;;6.18;1.30;;;;;;;15.02;60.80;102118.69;4941281;28;124313;-65
2021/09/28 02:10:17;;;;;;;5.13;1.23;;;;;;;14.99;60.67;102115.22;4962390;28;114301;-65
2021/09/28 02:12:44;;;;;;;5.93;1.48;;;;;;;14.98;60.76;102108.13;4957594;28;114024;-65
2021/09/28 02:15:11;;;;;;;6.05;1.33;;;;;;;14.96;60.83;102120.66;4953057;28;125344;-65
2021/09/28 02:17:40;;;;;;;5.25;1.35;;;;;;;14.94;60.87;102116.34;4955462;28;124580;-66
2021/09/28 02:20:09;;;;;;;4.07;1.20;;;;;;;14.91;60.76;102120.00;4954553;28;115547;-65
2021/09/28 02:22:36;;;;;;;5.60;1.35;;;;;;;14.90;61.19;102126.28;4935798;28;115473;-65
2021/09/28 02:25:06;;;;;;;5.22;1.20;;;;;;;14.88;60.84;102122.81;4956700;28;124190;-65
2021/09/28 02:27:34;;;;;;;5.43;1.50;;;;;;;14.86;60.77;102124.69;4954884;28;123959;-66
2021/09/28 02:30:02;;;;;;;7.10;1.48;;;;;;;14.85;60.93;102128.25;4950782;28;114635;-66
2021/09/28 02:32:29;;;;;;;4.28;1.10;;;;;;;14.84;60.84;102125.66;4956083;28;114016;-65
2021/09/28 02:34:57;;;;;;;5.25;1.23;;;;;;;14.81;60.82;102121.31;4956234;28;123773;-65
2021/09/28 02:37:24;;;;;;;6.90;1.40;;;;;;;14.78;60.82;102116.13;4943433;28;123297;-65
2021/09/28 02:39:52;;;;;;;6.53;1.23;;;;;;;14.76;60.95;102117.97;4937844;28;114679;-65
2021/09/28 02:42:19;;;;;;;6.72;1.58;;;;;;;14.75;60.84;102116.25;4965677;28;114283;-65
2021/09/28 02:44:48;;;;;;;4.80;1.23;;;;;;;14.72;60.99;102116.38;4964108;28;125132;-65
2021/09/28 02:47:15;;;;;;;3.58;1.27;;;;;;;14.70;61.00;102118.25;4957111;28;124073;-65
2021/09/28 02:49:43;;;;;;;3.75;1.23;;;;;;;14.68;61.04;102125.44;4962247;28;115693;-65
2021/09/28 02:52:11;;;;;;;9.60;1.58;;;;;;;14.67;60.95;102123.69;4962829;28;114095;-65
2021/09/28 02:54:38;;;;;;;7.25;1.52;;;;;;;14.64;61.05;102118.50;4962790;28;123882;-65
2021/09/28 02:57:06;;;;;;;6.55;1.38;;;;;;;14.64;61.14;102121.19;4965275;28;123938;-66
2021/09/28 02:59:33;;;;;;;6.78;1.48;;;;;;;14.63;61.24;102127.44;4964746;28;114336;-65
2021/09/28 03:02:00;;;;;;;7.18;1.50;;;;;;;14.60;61.31;102123.97;4947338;28;114271;-65
2021/09/28 03:04:27;;;;;;;6.00;1.67;;;;;;;14.59;61.17;102127.53;4966086;28;124102;-65
2021/09/28 03:06:54;;;;;;;6.30;1.80;;;;;;;14.58;61.25;102128.50;4964982;28;124712;-65
2021/09/28 03:09:22;;;;;;;4.88;1.70;;;;;;;14.57;61.19;102134.75;4966659;28;115400;-65
2021/09/28 03:11:49;;;;;;;6.07;1.92;;;;;;;14.56;61.26;102133.00;4966112;28;114794;-65
2021/09/28 03:14:16;;;;;;;5.70;1.90;;;;;;;14.55;61.37;102141.91;4967738;28;124889;-65
2021/09/28 03:16:43;;;;;;;9.07;2.10;;;;;;;14.54;61.22;102140.19;4964885;28;122657;-65
2021/09/28 03:19:11;;;;;;;9.05;2.15;;;;;;;14.53;61.37;102138.44;4968782;28;114771;-65
2021/09/28 03:21:38;;;;;;;8.75;2.20;;;;;;;14.51;61.26;102142.97;4965859;28;114240;-65
2021/09/28 03:24:05;;;;;;;6.85;1.95;;;;;;;14.49;61.26;102142.16;4961653;28;124108;-66
2021/09/28 03:26:32;;;;;;;7.70;1.75;;;;;;;14.47;61.33;102144.03;4950250;28;124113;-65
2021/09/28 03:28:59;;;;;;;8.05;2.17;;;;;;;14.47;61.27;102138.69;4965170;28;114783;-66
2021/09/28 03:31:26;;;;;;;8.40;1.90;;;;;;;14.47;61.43;102144.03;4970755;28;113903;-63
2021/09/28 03:33:53;;;;;;;5.07;1.90;;;;;;;14.46;61.36;102147.59;4970633;28;124421;-63
2021/09/28 03:36:21;;;;;;;4.55;1.52;;;;;;;14.45;61.41;102137.91;4973003;28;124447;-64
2021/09/28 03:38:48;;;;;;;6.22;1.60;;;;;;;14.44;61.32;102138.81;4968356;28;114468;-64
2021/09/28 03:41:15;;;;;;;10.77;1.60;;;;;;;14.43;61.33;102142.41;4969104;28;114108;-65
2021/09/28 03:43:42;;;;;;;4.97;1.42;;;;;;;14.43;61.50;102142.41;4967045;28;123904;-64
2021/09/28 03:46:09;;;;;;;6.78;1.70;;;;;;;14.43;61.40;102145.09;4972929;28;123834;-64
2021/09/28 03:48:36;;;;;;;6.57;1.67;;;;;;;14.40;61.45;102137.19;4961953;28;114228;-64
2021/09/28 03:51:04;;;;;;;5.07;1.60;;;;;;;14.40;61.62;102139.88;4967118;28;114312;-64
2021/09/28 03:53:31;;;;;;;4.70;1.67;;;;;;;14.39;61.46;102140.78;4966452;28;123779;-64
2021/09/28 03:55:58;;;;;;;7.85;1.92;;;;;;;14.39;61.55;102140.78;4965472;28;124010;-65
2021/09/28 03:58:25;;;;;;;5.43;1.75;;;;;;;14.37;61.50;102140.88;4968784;28;115730;-65
2021/09/28 04:00:52;;;;;;;5.85;1.60;;;;;;;14.37;61.37;102145.31;4961309;28;114921;-65
2021/09/28 04:03:20;;;;;;;7.38;1.52;;;;;;;14.36;61.46;102146.25;4970589;28;124077;-65
2021/09/28 04:05:47;;;;;;;4.40;1.40;;;;;;;14.34;61.45;102151.63;4971148;28;123736;-65
2021/09/28 04:08:14;;;;;;;6.03;2.25;;;;;;;14.34;61.61;102158.78;4950919;28;113529;-65
2021/09/28 04:10:41;;;;;;;5.65;1.65;;;;;;;14.32;61.60;102155.31;4971523;28;114322;-65
2021/09/28 04:13:09;;;;;;;5.63;1.77;;;;;;;14.30;61.28;102162.50;4965217;28;124360;-65
2021/09/28 04:15:40;;;;;;;5.78;1.60;;;;;;;14.29;61.45;102160.75;4956048;28;122847;-65
2021/09/28 04:18:11;;;;;;;8.27;1.80;;;;;;;14.27;61.39;102167.94;4972652;28;114177;-65
2021/09/28 04:20:42;;;;;;;5.57;1.50;;;;;;;14.25;61.62;102159.13;4962526;28;114163;-65
2021/09/28 04:23:11;;;;;;;4.07;1.40;;;;;;;14.25;61.56;102164.47;4968664;28;124704;-65
2021/09/28 04:25:38;;;;;;;5.10;1.58;;;;;;;14.24;61.52;102168.03;4950167;28;123117;-66
2021/09/28 04:28:16;;;;;;;7.30;1.70;;;;;;;14.21;61.57;102164.56;4961090;28;113281;-66
2021/09/28 04:30:44;;;;;;;4.60;1.40;;;;;;;14.21;61.61;102164.56;4958509;28;115030;-66
2021/09/28 04:33:11;;;;;;;4.35;1.65;;;;;;;14.20;61.64;102162.84;4970000;28;124903;-64
2021/09/28 04:35:38;;;;;;;6.15;1.48;;;;;;;14.20;61.64;102167.28;4971800;28;124015;-64
2021/09/28 04:38:06;;;;;;;8.38;2.10;;;;;;;14.20;61.53;102168.19;4959905;28;114348;-63
2021/09/28 04:40:33;;;;;;;5.97;1.88;;;;;;;14.19;61.56;102171.75;4967208;28;114788;-63
2021/09/28 04:43:00;;;;;;;5.63;1.60;;;;;;;14.18;61.63;102174.47;4967624;28;124663;-63
2021/09/28 04:45:28;;;;;;;9.13;1.75;;;;;;;14.17;61.45;102170.97;4967601;28;124629;-64
2021/09/28 04:47:55;;;;;;;4.53;1.55;;;;;;;14.15;61.51;102175.47;4956932;28;114233;-63
2021/09/28 04:50:23;;;;;;;6.85;1.60;;;;;;;14.14;61.54;102173.72;4964914;28;114868;-64
2021/09/28 04:52:50;;;;;;;7.93;2.00;;;;;;;14.13;61.78;102177.34;4965212;28;124386;-64
2021/09/28 04:55:17;;;;;;;8.43;2.05;;;;;;;14.12;61.63;102180.91;4963832;28;123676;-64
2021/09/28 04:57:44;;;;;;;6.47;1.60;;;;;;;14.12;61.59;102175.59;4963765;28;114056;-64
2021/09/28 05:00:12;;;;;;;6.03;1.73;;;;;;;14.11;61.52;102179.19;4948753;28;112872;-64
2021/09/28 05:02:39;;;;;;;6.72;1.75;;;;;;;14.10;61.40;102177.44;4968389;28;124570;-64
2021/09/28 05:05:06;;;;;;;5.28;1.80;;;;;;;14.09;61.47;102181.06;4958178;28;123900;-64
2021/09/28 05:07:33;;;;;;;5.43;1.33;;;;;;;14.08;61.67;102184.63;4969949;28;114821;-64
2021/09/28 05:10:01;;;;;;;7.22;1.98;;;;;;;14.07;61.56;102185.56;4964422;28;114907;-64
2021/09/28 05:12:29;;;;;;;7.40;1.50;;;;;;;14.06;61.54;102191.81;4972176;28;124463;-64
2021/09/28 05:14:57;;;;;;;6.65;1.70;;;;;;;14.06;61.68;102191.81;4970018;28;124610;-63
2021/09/28 05:17:25;;;;;;;5.20;1.63;;;;;;;14.04;61.62;102188.34;4972094;28;114138;-66
2021/09/28 05:19:52;;;;;;;5.18;1.42;;;;;;;14.04;61.70;102193.66;4967143;28;113827;-66
2021/09/28 05:22:19;;;;;;;5.53;1.75;;;;;;;14.03;61.61;102197.25;4969788;28;124784;-64
2021/09/28 05:24:46;;;;;;;4.88;1.65;;;;;;;14.04;61.62;102188.34;4950901;28;123142;-64
2021/09/28 05:27:14;;;;;;;6.22;1.80;;;;;;;14.03;61.64;102191.91;4966652;28;114633;-64
2021/09/28 05:29:42;;;;;;;4.53;1.33;;;;;;;14.04;61.56;102193.66;4966125;28;114226;-64
2021/09/28 05:32:09;;;;;;;6.03;2.03;;;;;;;14.03;61.54;102194.59;4967302;28;124513;-64
2021/09/28 05:34:36;;;;;;;7.97;1.83;;;;;;;14.03;61.53;102181.25;4967716;28;123690;-67
2021/09/28 05:37:03;;;;;;;9.63;1.73;;;;;;;14.01;61.60;102183.13;4970430;28;114908;-64
2021/09/28 05:39:31;;;;;;;8.05;1.70;;;;;;;14.01;61.64;102189.34;4950642;28;115883;-64
2021/09/28 05:41:58;;;;;;;5.15;1.88;;;;;;;14.00;61.61;102192.91;4968929;28;124015;-66
2021/09/28 05:44:25;;;;;;;8.20;1.90;;;;;;;14.00;61.58;102186.72;4965296;28;124072;-64
2021/09/28 05:46:52;;;;;;;6.15;1.38;;;;;;;14.00;61.63;102202.72;4949343;28;114410;-64
2021/09/28 05:49:19;;;;;;;6.22;1.60;;;;;;;13.98;61.56;102193.91;4960708;28;114026;-64
2021/09/28 05:51:52;;;;;;;7.28;1.85;;;;;;;13.97;61.57;102197.50;4959698;28;124019;-64
2021/09/28 05:54:21;;;;;;;6.00;1.65;;;;;;;13.96;61.48;102206.44;4962351;28;124297;-64
2021/09/28 05:56:49;;;;;;;5.10;1.50;;;;;;;13.96;61.52;102206.44;4970409;28;115039;-65
2021/09/28 05:59:17;;;;;;;8.48;1.90;;;;;;;13.95;61.63;102199.34;4953418;28;113336;-65
2021/09/28 06:01:45;;;;;;;5.82;1.95;;;;;;;13.94;61.73;102203.81;4963962;28;123967;-66
2021/09/28 06:04:12;;;;;;;8.73;2.00;;;;;;;13.95;61.77;102205.53;4970782;28;123783;-67
2021/09/28 06:06:41;;;;;;;5.50;1.65;;;;;;;13.96;61.60;102206.44;4972978;28;115007;-66
2021/09/28 06:09:08;;;;;;;6.15;1.33;;;;;;;13.97;61.84;102208.16;4968443;28;114003;-66
2021/09/28 06:11:36;;;;;;;8.63;1.85;;;;;;;13.99;61.81;102211.63;4968361;28;124324;-67
2021/09/28 06:14:03;;;;;;;8.20;1.67;;;;;;;14.01;61.83;102220.41;4971265;28;124419;-66
2021/09/28 06:16:30;;;;;;;4.80;1.70;;;;;;;14.01;61.84;102215.09;4966294;28;114191;-65
2021/09/28 06:18:57;;;;;;;6.88;2.00;;;;;;;14.03;61.71;102223.88;4972100;28;113974;-65
2021/09/28 06:21:24;;;;;;;6.80;1.55;;;;;;;14.06;61.82;102223.78;4969065;28;123852;-65
2021/09/28 06:23:53;;;;;;;6.68;1.80;;;;;;;14.09;61.87;102222.78;4965258;28;125485;-66
2021/09/28 06:26:21;;;;;;;6.57;1.80;;;;;;;14.11;61.87;102215.59;4961084;28;115262;-65
2021/09/28 06:28:48;;;;;;;5.88;2.17;;;;;;;14.12;61.70;102223.53;4962658;28;114731;-66
2021/09/28 06:31:15;;;;;;;6.63;1.75;;;;;;;14.13;61.86;102225.31;4963874;28;124129;-66
2021/09/28 06:33:43;;;;;;;6.68;1.77;;;;;;;14.16;61.91;102225.16;4966376;28;124960;-65
2021/09/28 06:36:10;;;;;;;11.52;1.90;;;;;;;14.19;61.93;102230.38;4970800;28;114144;-65
2021/09/28 06:38:37;;;;;;;5.53;1.50;;;;;;;14.26;62.08;102230.16;4967091;28;113984;-65
2021/09/28 06:41:04;;;;;;;7.10;1.67;;;;;;;14.33;62.05;102223.66;4963703;28;124091;-66
2021/09/28 06:43:32;;;;;;;6.20;2.05;;;;;;;14.40;62.14;102233.16;4966317;28;126521;-65
2021/09/28 06:45:59;;;;;;;5.40;1.77;;;;;;;14.49;62.20;102237.28;4970385;28;114816;-66
2021/09/28 06:48:26;;;;;;;8.00;1.80;;;;;;;14.58;62.08;102231.63;4953559;28;113098;-65
2021/09/28 06:50:54;;;;;;;7.53;1.60;;;;;;;14.69;62.29;102233.84;4969030;28;123891;-66
2021/09/28 06:53:21;;;;;;;6.20;1.80;;;;;;;14.79;62.17;102235.22;4969150;28;124008;-67
2021/09/28 06:55:48;;;;;;;5.07;1.88;;;;;;;14.90;62.06;102232.97;4954213;28;113867;-67
2021/09/28 06:58:15;;;;;;;7.70;1.73;;;;;;;14.99;61.92;102237.94;4958775;28;114537;-67
2021/09/28 07:00:42;;;;;;;6.10;1.83;;;;;;;15.08;61.79;102246.47;4969492;28;124388;-67
2021/09/28 07:03:09;;;;;;;5.43;1.80;;;;;;;15.15;61.66;102238.16;4970515;28;124284;-68
2021/09/28 07:05:37;;;;;;;5.47;1.80;;;;;;;15.25;61.65;102243.97;4974252;28;114542;-68
2021/09/28 07:08:04;;;;;;;4.90;1.80;;;;;;;15.35;61.60;102240.00;4975221;28;114083;-66
2021/09/28 07:10:32;;;;;;;5.80;1.88;;;;;;;15.45;61.66;102239.59;4965265;28;124975;-67
2021/09/28 07:13:00;;;;;;;4.82;1.60;;;;;;;15.55;61.50;102248.94;4953347;28;123373;-64
2021/09/28 07:15:27;;;;;;;6.43;1.90;;;;;;;15.65;61.68;102250.28;4973334;28;115534;-66
2021/09/28 07:17:55;;;;;;;6.85;2.33;;;;;;;15.75;61.51;102246.28;4959354;28;114694;-65
2021/09/28 07:20:22;;;;;;;5.00;1.90;;;;;;;15.87;61.46;102249.34;4948670;28;123140;-65
2021/09/28 07:22:50;;;;;;;6.70;2.30;;;;;;;15.98;61.37;102244.41;4963655;28;124651;-66
2021/09/28 07:25:17;;;;;;;6.28;1.75;;;;;;;16.12;61.44;102246.44;4968746;28;115087;-66
2021/09/28 07:28:00;;;;;;;4.28;1.63;;;;;;;16.27;61.27;102244.84;4962961;28;114267;-66
2021/09/28 07:30:29;;;;;;;6.32;1.90;;;;;;;16.40;61.17;102245.16;4958749;28;124289;-66
2021/09/28 07:32:58;;;;;;;8.85;2.28;;;;;;;16.51;61.04;102249.03;4964803;28;124101;-66
2021/09/28 07:35:27;;;;;;;5.95;1.70;;;;;;;16.64;60.95;102248.47;4958976;28;114375;-66
2021/09/28 07:37:54;;;;;;;7.07;2.08;;;;;;;16.75;60.95;102248.81;4963040;28;114623;-64
2021/09/28 07:40:21;;;;;;;6.15;2.20;;;;;;;16.88;60.90;102241.97;4970931;28;124699;-65
2021/09/28 07:42:50;;;;;;;7.32;1.90;;;;;;;17.01;60.54;102249.38;4975069;28;123964;-64
2021/09/28 07:45:17;;;;;;;4.97;2.20;;;;;;;17.08;60.05;102248.13;4959143;28;114310;-66
2021/09/28 07:47:45;;;;;;;5.70;1.98;;;;;;;17.13;60.11;102256.78;4973844;28;114141;-64
2021/09/28 07:50:12;;;;;;;6.03;2.00;;;;;;;17.21;60.08;102257.25;4975349;28;124887;-64
2021/09/28 07:52:40;;;;;;;4.90;2.15;;;;;;;17.31;59.88;102261.22;4966132;28;125030;-64
2021/09/28 07:55:09;;;;;;;6.80;2.20;;;;;;;17.40;59.82;102253.66;4970701;28;114220;-64
2021/09/28 07:57:36;;;;;;;9.57;2.60;;;;;;;17.48;59.76;102251.47;4963558;28;114414;-64
2021/09/28 08:00:06;;;;;;;8.48;2.22;;;;;;;17.55;59.74;102250.19;4972483;28;123889;-65
2021/09/28 08:02:40;;;;;;;6.88;2.10;;;;;;;17.63;59.26;102260.50;4968915;28;124356;-65
2021/09/28 08:05:09;;;;;;;7.68;2.30;;;;;;;17.69;59.24;102254.84;4970147;28;115534;-65
2021/09/28 08:07:40;;;;;;;4.82;2.03;;;;;;;17.74;59.28;102258.13;4967240;28;115002;-65
2021/09/28 08:10:09;;;;;;;6.10;2.13;;;;;;;17.79;59.02;102263.25;4963736;28;124526;-64
2021/09/28 08:12:36;;;;;;;5.43;2.20;;;;;;;17.84;58.86;102263.88;4964355;28;123901;-65
2021/09/28 08:15:05;;;;;;;7.18;2.30;;;;;;;17.87;58.81;102263.75;4978178;28;114358;-65
2021/09/28 08:17:37;;;;;;;8.32;2.20;;;;;;;17.92;58.80;102256.31;4973238;28;113993;-65
2021/09/28 08:20:08;;;;;;;10.00;2.20;;;;;;;17.99;58.71;102252.38;4970571;28;124052;-65
2021/09/28 08:22:39;;;;;;;8.20;2.70;;;;;;;18.04;58.86;102250.28;4972481;28;123925;-65
2021/09/28 08:25:10;;;;;;;9.88;2.60;;;;;;;18.12;58.88;102249.91;4968756;28;113996;-65
2021/09/28 08:30:23;;;;;;;5.85;2.03;;;;;;;18.32;58.75;102248.78;4970102;28;124053;-65
2021/09/28 08:32:51;;;;;;;5.68;2.20;;;;;;;18.40;58.72;102251.94;4969940;28;123946;-65
2021/09/28 08:35:18;;;;;;;8.50;2.03;;;;;;;18.49;58.40;102250.53;4952240;28;114452;-65
2021/09/28 08:37:45;;;;;;;7.22;1.88;;;;;;;18.55;58.26;102246.63;4971858;28;113985;-64
2021/09/28 08:40:14;;;;;;;7.22;2.10;;;;;;;18.58;58.29;102249.16;4955689;28;123279;-64
2021/09/28 08:42:42;;;;;;;5.20;1.90;;;;;;;18.65;58.18;102250.56;4973816;28;123975;-66
2021/09/28 08:45:10;;;;;;;7.18;2.03;;;;;;;18.72;58.06;102243.84;4972352;28;114257;-66
2021/09/28 08:47:43;;;;;;;6.45;1.58;;;;;;;18.78;58.08;102246.22;4973099;28;113760;-65
2021/09/28 08:50:19;;;;;;;6.28;1.90;;;;;;;18.84;57.86;102245.88;4972224;28;125265;-65
2021/09/28 08:52:49;;;;;;;7.13;1.70;;;;;;;18.91;57.92;102240.16;4955991;28;122844;-65
2021/09/28 08:55:23;;;;;;;8.05;1.90;;;;;;;19.02;58.17;102243.06;4971874;28;115749;-65
2021/09/28 08:58:12;;;;;;;9.38;1.83;;;;;;;19.13;58.05;102250.50;4956613;28;115293;-65
2021/09/28 09:00:39;;;;;;;7.68;2.10;;;;;;;19.22;57.71;102242.78;4959644;28;124312;-65
2021/09/28 09:03:06;;;;;;;9.43;2.38;;;;;;;19.31;57.57;102248.53;4969585;28;123704;-65
2021/09/28 09:05:46;;;;;;;8.77;2.10;;;;;;;19.39;57.54;102246.28;4973948;28;114235;-65
2021/09/28 09:08:14;;;;;;;7.78;1.70;;;;;;;19.47;57.37;102238.63;4971545;28;114140;-64
2021/09/28 09:10:41;;;;;;;7.07;1.95;;;;;;;19.54;57.37;102248.03;4971318;28;123651;-65
2021/09/28 09:13:08;;;;;;;8.85;1.75;;;;;;;19.64;57.00;102251.03;4971110;28;125179;-65
2021/09/28 09:15:36;;;;;;;6.78;1.55;;;;;;;19.73;56.97;102244.28;4964661;28;114330;-65
2021/09/28 09:18:08;;;;;;;6.75;1.55;;;;;;;19.81;56.89;102241.97;4968910;28;113827;-65
2021/09/28 09:20:38;;;;;;;5.50;1.50;;;;;;;19.89;56.66;102239.69;4969956;28;124001;-65
2021/09/28 09:23:27;;;;;;;7.15;1.70;;;;;;;19.98;56.73;102239.06;4970581;28;123769;-65
2021/09/28 09:26:20;;;;;;;8.63;1.55;;;;;;;20.10;56.94;102242.84;4972663;28;114521;-65
2021/09/28 09:28:53;;;;;;;7.15;1.50;;;;;;;20.21;56.59;102234.06;4963840;28;114063;-65
2021/09/28 09:31:32;;;;;;;8.18;1.50;;;;;;;20.31;56.24;102224.47;4963831;28;124573;-66
2021/09/28 09:34:07;;;;;;;8.65;1.50;;;;;;;20.38;56.10;102231.19;4959384;28;124817;-66
2021/09/28 09:36:36;;;;;;;5.88;1.52;;;;;;;20.46;55.99;102233.38;4955778;28;114332;-66
2021/09/28 09:39:09;;;;;;;4.78;1.10;;;;;;;20.54;55.59;102232.88;4959475;28;115111;-66
2021/09/28 09:41:39;;;;;;;4.55;1.20;;;;;;;20.63;55.74;102234.16;4970264;28;124694;-66
2021/09/28 09:44:07;;;;;;;9.10;1.58;;;;;;;20.70;55.32;102230.94;4971461;28;124222;-66
2021/09/28 09:46:47;;;;;;;6.20;1.52;;;;;;;20.76;55.47;102219.78;4972382;28;115678;-65
2021/09/28 09:49:26;;;;;;;10.63;1.50;;;;;;;20.86;55.29;102216.47;4966770;28;114641;-65
2021/09/28 09:51:56;;;;;;;9.07;1.67;;;;;;;20.97;55.12;102222.00;4968790;28;123853;-65
2021/09/28 09:54:38;;;;;;;7.88;1.65;;;;;;;21.04;54.91;102212.53;4967877;28;124537;-65
2021/09/28 09:57:07;;;;;;;6.93;1.40;;;;;;;21.12;54.72;102218.25;4973134;28;114209;-65
2021/09/28 09:59:36;;;;;;;8.18;1.75;;;;;;;21.19;54.64;102206.09;4965828;28;114292;-65
2021/09/28 10:02:05;;;;;;;9.57;1.58;;;;;;;21.29;54.47;102205.47;4960448;28;123849;-66
2021/09/28 10:04:33;;;;;;;5.90;1.10;;;;;;;21.36;54.44;102206.75;4955323;28;122431;-66
2021/09/28 10:07:01;;;;;;;6.32;1.58;;;;;;;21.44;53.84;102215.22;4965080;28;114317;-66
2021/09/28 10:09:32;;;;;;;6.70;1.30;;;;;;;21.47;53.71;102209.59;4966257;28;113858;-66
2021/09/28 10:12:02;;;;;;;4.57;1.50;;;;;;;21.50;53.62;102205.84;4942894;28;124475;-66
2021/09/28 10:14:44;;;;;;;8.00;1.58;;;;;;;21.52;53.54;102207.47;4970356;28;124595;-66
2021/09/28 10:17:14;;;;;;;5.68;1.30;;;;;;;21.55;53.07;102206.41;4951285;28;114452;-66
2021/09/28 10:19:43;;;;;;;8.98;1.38;;;;;;;21.56;53.06;102203.56;4964533;28;113944;-66
2021/09/28 10:22:35;;;;;;;6.07;1.20;;;;;;;21.56;53.26;102202.72;4970146;28;123877;-66
2021/09/28 10:25:23;;;;;;;7.47;1.40;;;;;;;21.61;53.17;102203.25;4953759;28;124811;-66
2021/09/28 10:28:03;;;;;;;4.97;1.17;;;;;;;21.67;52.97;102201.97;4952743;28;114675;-66
2021/09/28 10:30:30;;;;;;;6.25;1.13;;;;;;;21.73;52.74;102193.44;4970036;28;113627;-66
2021/09/28 10:33:00;;;;;;;8.35;1.38;;;;;;;21.78;52.59;102199.38;4971835;28;124093;-66
2021/09/28 10:35:28;;;;;;;5.82;1.20;;;;;;;21.83;52.37;102191.84;4965674;28;124559;-66
2021/09/28 10:38:01;;;;;;;7.38;1.30;;;;;;;21.86;52.17;102188.03;4961579;28;114964;-66
2021/09/28 10:40:28;;;;;;;9.50;1.20;;;;;;;21.89;52.22;102188.69;4955449;28;115387;-66
2021/09/28 10:43:06;;;;;;;4.95;1.10;;;;;;;21.93;51.85;102183.94;4964242;28;124300;-66
2021/09/28 10:45:36;;;;;;;3.75;0.98;;;;;;;21.96;51.64;102184.59;4965068;28;123813;-65
2021/09/28 10:48:29;;;;;;;5.28;1.05;;;;;;;21.98;51.51;102181.75;4970147;28;114752;-66
2021/09/28 10:51:34;;;;;;;5.03;1.30;;;;;;;22.02;51.71;102179.69;4969778;28;114807;-66
2021/09/28 10:54:05;;;;;;;4.95;1.23;;;;;;;22.07;51.54;102170.28;4968656;28;124996;-66
2021/09/28 10:56:32;;;;;;;8.13;1.50;;;;;;;22.11;51.22;102176.31;4966302;28;123841;-64
2021/09/28 10:59:02;;;;;;;5.68;1.20;;;;;;;22.12;51.02;102168.13;4961632;28;115220;-64
2021/09/28 11:01:31;;;;;;;3.80;1.05;;;;;;;22.15;50.88;102167.03;4956177;28;114299;-64
2021/09/28 11:04:04;;;;;;;6.40;1.15;;;;;;;22.14;50.49;102162.63;4951782;28;124104;-64
2021/09/28 11:06:46;;;;;;;5.63;1.00;;;;;;;22.12;50.31;102157.34;4967821;28;124533;-64
2021/09/28 11:09:15;;;;;;;7.35;1.40;;;;;;;22.13;50.28;102147.38;4962856;28;114080;-64
2021/09/28 11:11:45;;;;;;;5.63;1.33;;;;;;;22.13;50.01;102159.06;4971325;28;113742;-63
2021/09/28 11:14:12;;;;;;;11.35;1.30;;;;;;;22.14;50.19;102143.72;4969490;28;124022;-64
2021/09/28 11:16:42;;;;;;;4.85;1.25;;;;;;;22.19;49.61;102141.56;4967973;28;123777;-64
2021/09/28 11:19:11;;;;;;;5.10;1.10;;;;;;;22.20;49.37;102143.28;4960094;28;114316;-63
2021/09/28 11:21:44;;;;;;;5.05;1.10;;;;;;;22.20;49.20;102137.88;4968062;28;114913;-63
2021/09/28 11:24:12;;;;;;;5.05;1.00;;;;;;;22.21;49.49;102134.22;4935236;28;123164;-64
2021/09/28 11:26:45;;;;;;;5.13;1.02;;;;;;;22.26;49.46;102121.25;4967695;28;124024;-64
2021/09/28 11:29:19;;;;;;;3.38;0.90;;;;;;;22.32;49.40;102126.22;4969280;28;115394;-65